Westerlo, Belgium
Current Conditions -  °F | °C
As of 4:25 PM on Thursday 27 Nov 2014 (Local Time) from EBDT Reporting Station
Light Rain Light Rain  
Wind Chill: 44°   Ceiling: 400
Heat Index: 46°   Visibility: 1.8mi
Dew Point: 46°   Wind: 6mph
Humidity: 100%   Direction: 90°E
Pressure: 29.68"   Gusts: NA
Location:  51.09°N, 4.92°E
Report Text: EBDT 271525Z 09005KT 3000 -RADZ SCT003 BKN004 08/08 Q1005 YLO YLO BECMG GRN
Loading
Personal Weather Stations






























Interactive Weather Map New forecast layout! Learn more

10-Day Weather Forecast

Advertisements
Track Severe Weather on mobile